KPLN/PLN METAR and TAF weather

Enter ICAO airport designator
Station Type Date Time Source
KPLN METAR 2021/09/23 18:12 UTC NOAA

KPLN 231812Z AUTO 35011KT 10SM OVC009 08/07 A2987 RMK AO2 RAE02 P0000 T00830072


Station Type Date Time Source
KPLN Decoded METAR 2021/09/23 18:12 UTC NOAA

PELLSTON REGIONAL AIRPORT, MI, United States (KPLN) 45-34N 084-48W 217M
Sep 23, 2021 - 02:12 PM EDT / 2021.09.23 1812 UTC
Wind: from the N (350 degrees) at 13 MPH (11 KT):0
Visibility: 10 mile(s):0
Sky conditions: overcast
Precipitation last hour: A trace
Temperature: 46.9 F (8.3 C)
Dew Point: 45.0 F (7.2 C)
Relative Humidity: 92%
Pressure (altimeter): 29.87 in. Hg (1011 hPa)
ob: KPLN 231812Z AUTO 35011KT 10SM OVC009 08/07 A2987 RMK AO2 RAE02 P0000 T00830072
cycle: 18

Station Type Date Time Source
KPLN TAF 2021/09/23 18:22 UTC NOAA

TAF KPLN 231720Z 2318/2418 36010KT 4SM -DZ BR OVC008
FM232300 01009KT 6SM BR VCSH OVC008
FM240500 34005KT 6SM BR VCSH OVC008
FM241200 30009KT 6SM BR OVC006
FM241400 29011G19KT P6SM BKN014
FM241500 29012G20KT P6SM SCT026

Example: see airport list